Adventure Cat 2 — WDA9411 — position and weather

sailwx.info

Track history (hours):
 
Tides and Currents Weather Stations Pressure Air Temp Water Temp Dewpoint Dewpoint Depression Visibility Wind Speed Wind Dir Waves Ship Positions

Adventure Cat 2

Owner: ADVENTURE CAT INC, NAPA, CA. More information available from US FCC via Universal Licensing System and Coast Guard Vessel Documentation Center.

Last reported at 2017-Oct-19 01:30 UTC. Time now 2017-Oct-19 01:35 UTC.
Position N 37°49' W 122°28'.

Length 20 m; draft 3 m.

Type: Sailing vessel. MMSI: 366864850.

Date/timePositionNaut miles runAvg speedWind from/ knotsBaromVisibWave heightAir tempDewpointWater temp
2017-Oct-19 01:30N 37°49' W 122°28'2 2.9
2017-Oct-19 00:59N 37°50' W 122°27'2 0.1
2017-Oct-18 01:59N 37°49' W 122°25'4 7.4
2017-Oct-18 01:30N 37°50' W 122°29'2 3.3
2017-Oct-18 01:00N 37°50' W 122°27'2 1.1
2017-Oct-17 23:23N 37°49' W 122°25'2 4.1
2017-Oct-17 23:00N 37°49' W 122°27'1 2.3
2017-Oct-17 22:30N 37°50' W 122°28'3 2.9
2017-Oct-17 21:30N 37°49' W 122°25'3 5.3
2017-Oct-17 21:00N 37°49' W 122°28'1 2.2
2017-Oct-17 20:30N 37°50' W 122°27'2 0.1
2017-Oct-17 02:06N 37°49' W 122°25'0 0.0
2017-Oct-17 02:00N 37°49' W 122°25'3 6.6
2017-Oct-17 01:30N 37°49' W 122°29'3 5.6
2017-Oct-17 01:00N 37°50' W 122°25'1 2.5
2017-Oct-17 00:30N 37°49' W 122°25'0 0.0
2017-Oct-16 23:54N 37°49' W 122°25'0 0.0
2017-Oct-16 23:26N 37°49' W 122°25'2 4.3
2017-Oct-16 23:00N 37°49' W 122°27'1 1.6
2017-Oct-16 22:30N 37°49' W 122°28'3 4.9
2017-Oct-16 21:59N 37°49' W 122°25'0 0.3
2017-Oct-16 21:30N 37°49' W 122°25'2 4.8
2017-Oct-16 21:00N 37°49' W 122°28'1 2.6
2017-Oct-16 20:30N 37°50' W 122°27'2 3.5
2017-Oct-16 20:00N 37°49' W 122°25'0 0.0
2017-Oct-16 19:30N 37°49' W 122°25'0 0.0
2017-Oct-16 19:00N 37°49' W 122°25'0 0.0
2017-Oct-16 18:30N 37°49' W 122°25'0 0.0
2017-Oct-16 02:13N 37°49' W 122°25'0 1.7
2017-Oct-16 02:00N 37°49' W 122°25'3 5.8
2017-Oct-16 01:30N 37°49' W 122°29'2 3.4
2017-Oct-16 01:00N 37°49' W 122°26'1 2.6
2017-Oct-16 00:28N 37°49' W 122°25'0 0.0
2017-Oct-16 00:00N 37°49' W 122°25'0 0.0
2017-Oct-15 23:26N 37°49' W 122°25'0 0.0
2017-Oct-15 22:57N 37°49' W 122°25'1 1.5
2017-Oct-15 22:30N 37°49' W 122°25'3 5.4
2017-Oct-15 22:00N 37°49' W 122°29'2 4.1
2017-Oct-15 21:25N 37°51' W 122°28'2 4.6
2017-Oct-15 21:00N 37°52' W 122°25'2 2.5
2017-Oct-15 20:02N 37°50' W 122°25'0 4.2
2017-Oct-15 19:58N 37°50' W 122°25'1 0.1
2017-Oct-15 02:03N 37°49' W 122°25'0 0.0
2017-Oct-15 02:00N 37°49' W 122°25'2 4.9
2017-Oct-15 01:30N 37°49' W 122°28'1 2.2
2017-Oct-15 01:00N 37°51' W 122°27'2 1.4
2017-Oct-14 23:22N 37°49' W 122°25'3 7.0
2017-Oct-14 23:00N 37°49' W 122°28'1 2.3
2017-Oct-14 22:30N 37°50' W 122°28'3 6.1
2017-Oct-14 22:00N 37°49' W 122°25'0 0.4
2017-Oct-14 21:25N 37°49' W 122°25'3 6.4
2017-Oct-14 21:00N 37°49' W 122°28'0 0.9
2017-Oct-14 20:30N 37°50' W 122°28'3 5.5
2017-Oct-14 19:58N 37°49' W 122°25'0 0.0
2017-Oct-14 19:30N 37°49' W 122°25'0 0.0
2017-Oct-14 19:00N 37°49' W 122°25'0 0.0
2017-Oct-14 02:06N 37°49' W 122°25'1 9.3
2017-Oct-14 01:59N 37°49' W 122°26'2 3.3
2017-Oct-14 01:30N 37°50' W 122°28'2 3.2
2017-Oct-14 01:00N 37°49' W 122°26'1 0.9
2017-Oct-13 23:46N 37°49' W 122°25'1 3.0
2017-Oct-13 23:30N 37°48' W 122°24'1 1.9
2017-Oct-13 23:00N 37°48' W 122°23'2 3.8
2017-Oct-13 22:30N 37°49' W 122°22'2 3.9
2017-Oct-13 22:00N 37°48' W 122°24'0 0.1
2017-Oct-13 21:30N 37°48' W 122°24'1 2.2
2017-Oct-13 21:00N 37°49' W 122°25'0 0.0
2017-Oct-13 20:30N 37°49' W 122°25'0 0.0
2017-Oct-13 20:00N 37°49' W 122°25'0 0.0
2017-Oct-13 19:30N 37°49' W 122°25'0 0.0
2017-Oct-13 18:59N 37°49' W 122°25'0 0.0
2017-Oct-13 18:30N 37°49' W 122°25'0 0.0
2017-Oct-13 01:54N 37°49' W 122°25'3 6.5
2017-Oct-13 01:30N 37°49' W 122°28'1 1.2
2017-Oct-13 01:01N 37°50' W 122°28'3 1.8
2017-Oct-12 23:24N 37°49' W 122°24'3 7.4
2017-Oct-12 23:01N 37°49' W 122°28'1 2.3
2017-Oct-12 22:30N 37°50' W 122°27'2 2.2
2017-Oct-12 21:23N 37°49' W 122°25'3 7.5
2017-Oct-12 21:00N 37°49' W 122°28'1 2.2
2017-Oct-12 20:30N 37°50' W 122°28'3 0.2
2017-Oct-12 02:34N 37°49' W 122°25'0 0.0
2017-Oct-12 02:30N 37°49' W 122°25'1 1.1
2017-Oct-12 02:00N 37°49' W 122°25'3 5.9
2017-Oct-12 01:30N 37°49' W 122°29'1 2.7
2017-Oct-12 01:00N 37°49' W 122°27'2 3.9
2017-Oct-12 00:30N 37°49' W 122°25'0 0.0
2017-Oct-12 00:00N 37°49' W 122°25'0 0.0
2017-Oct-11 23:30N 37°49' W 122°25'0 0.0
2017-Oct-11 23:00N 37°49' W 122°25'0 0.7
2017-Oct-11 22:29N 37°49' W 122°25'0 0.8
2017-Oct-11 22:00N 37°49' W 122°25'0 0.0
2017-Oct-11 21:30N 37°49' W 122°25'0 0.0
2017-Oct-11 21:00N 37°49' W 122°25'3 5.1
2017-Oct-11 20:30N 37°49' W 122°28'1 2.2
2017-Oct-11 20:00N 37°50' W 122°28'1 1.6
2017-Oct-11 19:30N 37°51' W 122°28'1 2.6
2017-Oct-11 19:00N 37°50' W 122°27'2 3.7
2017-Oct-11 18:30N 37°50' W 122°25'1 1.8
2017-Oct-11 17:59N 37°49' W 122°25'0 0.0
2017-Oct-10 21:30N 37°49' W 122°25'3 6.5
2017-Oct-10 21:00N 37°49' W 122°29'2 4.1
2017-Oct-10 20:29N 37°50' W 122°26'2 0.1
2017-Oct-10 02:00N 37°49' W 122°25'3 6.4
2017-Oct-10 01:30N 37°49' W 122°29'2 3.5
2017-Oct-10 01:00N 37°50' W 122°27'3 1.9
2017-Oct-09 23:36N 37°49' W 122°25'1 5.7
2017-Oct-09 23:30N 37°49' W 122°25'3 5.8
2017-Oct-09 23:00N 37°49' W 122°29'2 4.1
2017-Oct-09 22:28N 37°50' W 122°26'1 1.3
2017-Oct-09 21:23N 37°49' W 122°25'3 6.7
2017-Oct-09 21:00N 37°49' W 122°28'2 3.5
2017-Oct-09 20:30N 37°50' W 122°26'1 0.1
2017-Oct-09 01:58N 37°49' W 122°25'  
Track history (hours):
 
Tides and Currents Weather Stations Pressure Air Temp Water Temp Dewpoint Dewpoint Depression Visibility Wind Speed Wind Dir Waves Ship Positions

Adventure Cat 2

Owner: ADVENTURE CAT INC, NAPA, CA. More information available from US FCC via Universal Licensing System and Coast Guard Vessel Documentation Center.

Last reported at 2017-Oct-19 01:30 UTC. Time now 2017-Oct-19 01:35 UTC.
Position N 37°49' W 122°28'.

Length 20 m; draft 3 m.

Type: Sailing vessel. MMSI: 366864850.

Date/timePositionNaut miles runAvg speedWind from/ knotsBaromVisibWave heightAir tempDewpointWater temp
2017-Oct-19 01:30N 37°49' W 122°28'2 2.9
2017-Oct-19 00:59N 37°50' W 122°27'2 0.1
2017-Oct-18 01:59N 37°49' W 122°25'4 7.4
2017-Oct-18 01:30N 37°50' W 122°29'2 3.3
2017-Oct-18 01:00N 37°50' W 122°27'2 1.1
2017-Oct-17 23:23N 37°49' W 122°25'2 4.1
2017-Oct-17 23:00N 37°49' W 122°27'1 2.3
2017-Oct-17 22:30N 37°50' W 122°28'3 2.9
2017-Oct-17 21:30N 37°49' W 122°25'3 5.3
2017-Oct-17 21:00N 37°49' W 122°28'1 2.2
2017-Oct-17 20:30N 37°50' W 122°27'2 0.1
2017-Oct-17 02:06N 37°49' W 122°25'0 0.0
2017-Oct-17 02:00N 37°49' W 122°25'3 6.6
2017-Oct-17 01:30N 37°49' W 122°29'3 5.6
2017-Oct-17 01:00N 37°50' W 122°25'1 2.5
2017-Oct-17 00:30N 37°49' W 122°25'0 0.0
2017-Oct-16 23:54N 37°49' W 122°25'0 0.0
2017-Oct-16 23:26N 37°49' W 122°25'2 4.3
2017-Oct-16 23:00N 37°49' W 122°27'1 1.6
2017-Oct-16 22:30N 37°49' W 122°28'3 4.9
2017-Oct-16 21:59N 37°49' W 122°25'0 0.3
2017-Oct-16 21:30N 37°49' W 122°25'2 4.8
2017-Oct-16 21:00N 37°49' W 122°28'1 2.6
2017-Oct-16 20:30N 37°50' W 122°27'2 3.5
2017-Oct-16 20:00N 37°49' W 122°25'0 0.0
2017-Oct-16 19:30N 37°49' W 122°25'0 0.0
2017-Oct-16 19:00N 37°49' W 122°25'0 0.0
2017-Oct-16 18:30N 37°49' W 122°25'0 0.0
2017-Oct-16 02:13N 37°49' W 122°25'0 1.7
2017-Oct-16 02:00N 37°49' W 122°25'3 5.8
2017-Oct-16 01:30N 37°49' W 122°29'2 3.4
2017-Oct-16 01:00N 37°49' W 122°26'1 2.6
2017-Oct-16 00:28N 37°49' W 122°25'0 0.0
2017-Oct-16 00:00N 37°49' W 122°25'0 0.0
2017-Oct-15 23:26N 37°49' W 122°25'0 0.0
2017-Oct-15 22:57N 37°49' W 122°25'1 1.5
2017-Oct-15 22:30N 37°49' W 122°25'3 5.4
2017-Oct-15 22:00N 37°49' W 122°29'2 4.1
2017-Oct-15 21:25N 37°51' W 122°28'2 4.6
2017-Oct-15 21:00N 37°52' W 122°25'2 2.5
2017-Oct-15 20:02N 37°50' W 122°25'0 4.2
2017-Oct-15 19:58N 37°50' W 122°25'1 0.1
2017-Oct-15 02:03N 37°49' W 122°25'0 0.0
2017-Oct-15 02:00N 37°49' W 122°25'2 4.9
2017-Oct-15 01:30N 37°49' W 122°28'1 2.2
2017-Oct-15 01:00N 37°51' W 122°27'2 1.4
2017-Oct-14 23:22N 37°49' W 122°25'3 7.0
2017-Oct-14 23:00N 37°49' W 122°28'1 2.3
2017-Oct-14 22:30N 37°50' W 122°28'3 6.1
2017-Oct-14 22:00N 37°49' W 122°25'0 0.4
2017-Oct-14 21:25N 37°49' W 122°25'3 6.4
2017-Oct-14 21:00N 37°49' W 122°28'0 0.9
2017-Oct-14 20:30N 37°50' W 122°28'3 5.5
2017-Oct-14 19:58N 37°49' W 122°25'0 0.0
2017-Oct-14 19:30N 37°49' W 122°25'0 0.0
2017-Oct-14 19:00N 37°49' W 122°25'0 0.0
2017-Oct-14 02:06N 37°49' W 122°25'1 9.3
2017-Oct-14 01:59N 37°49' W 122°26'2 3.3
2017-Oct-14 01:30N 37°50' W 122°28'2 3.2
2017-Oct-14 01:00N 37°49' W 122°26'1 0.9
2017-Oct-13 23:46N 37°49' W 122°25'1 3.0
2017-Oct-13 23:30N 37°48' W 122°24'1 1.9
2017-Oct-13 23:00N 37°48' W 122°23'2 3.8
2017-Oct-13 22:30N 37°49' W 122°22'2 3.9
2017-Oct-13 22:00N 37°48' W 122°24'0 0.1
2017-Oct-13 21:30N 37°48' W 122°24'1 2.2
2017-Oct-13 21:00N 37°49' W 122°25'0 0.0
2017-Oct-13 20:30N 37°49' W 122°25'0 0.0
2017-Oct-13 20:00N 37°49' W 122°25'0 0.0
2017-Oct-13 19:30N 37°49' W 122°25'0 0.0
2017-Oct-13 18:59N 37°49' W 122°25'0 0.0
2017-Oct-13 18:30N 37°49' W 122°25'0 0.0
2017-Oct-13 01:54N 37°49' W 122°25'3 6.5
2017-Oct-13 01:30N 37°49' W 122°28'1 1.2
2017-Oct-13 01:01N 37°50' W 122°28'3 1.8
2017-Oct-12 23:24N 37°49' W 122°24'3 7.4
2017-Oct-12 23:01N 37°49' W 122°28'1 2.3
2017-Oct-12 22:30N 37°50' W 122°27'2 2.2
2017-Oct-12 21:23N 37°49' W 122°25'3 7.5
2017-Oct-12 21:00N 37°49' W 122°28'1 2.2
2017-Oct-12 20:30N 37°50' W 122°28'3 0.2
2017-Oct-12 02:34N 37°49' W 122°25'0 0.0
2017-Oct-12 02:30N 37°49' W 122°25'1 1.1
2017-Oct-12 02:00N 37°49' W 122°25'3 5.9
2017-Oct-12 01:30N 37°49' W 122°29'1 2.7
2017-Oct-12 01:00N 37°49' W 122°27'2 3.9
2017-Oct-12 00:30N 37°49' W 122°25'0 0.0
2017-Oct-12 00:00N 37°49' W 122°25'0 0.0
2017-Oct-11 23:30N 37°49' W 122°25'0 0.0
2017-Oct-11 23:00N 37°49' W 122°25'0 0.7
2017-Oct-11 22:29N 37°49' W 122°25'0 0.8
2017-Oct-11 22:00N 37°49' W 122°25'0 0.0
2017-Oct-11 21:30N 37°49' W 122°25'0 0.0
2017-Oct-11 21:00N 37°49' W 122°25'3 5.1
2017-Oct-11 20:30N 37°49' W 122°28'1 2.2
2017-Oct-11 20:00N 37°50' W 122°28'1 1.6
2017-Oct-11 19:30N 37°51' W 122°28'1 2.6
2017-Oct-11 19:00N 37°50' W 122°27'2 3.7
2017-Oct-11 18:30N 37°50' W 122°25'1 1.8
2017-Oct-11 17:59N 37°49' W 122°25'0 0.0
2017-Oct-10 21:30N 37°49' W 122°25'3 6.5
2017-Oct-10 21:00N 37°49' W 122°29'2 4.1
2017-Oct-10 20:29N 37°50' W 122°26'2 0.1
2017-Oct-10 02:00N 37°49' W 122°25'3 6.4
2017-Oct-10 01:30N 37°49' W 122°29'2 3.5
2017-Oct-10 01:00N 37°50' W 122°27'3 1.9
2017-Oct-09 23:36N 37°49' W 122°25'1 5.7
2017-Oct-09 23:30N 37°49' W 122°25'3 5.8
2017-Oct-09 23:00N 37°49' W 122°29'2 4.1
2017-Oct-09 22:28N 37°50' W 122°26'1 1.3
2017-Oct-09 21:23N 37°49' W 122°25'3 6.7
2017-Oct-09 21:00N 37°49' W 122°28'2 3.5
2017-Oct-09 20:30N 37°50' W 122°26'1 0.1
2017-Oct-09 01:58N 37°49' W 122°25'  

Dump ship's entire track history